Time;durP1;ratioP1;P1;durP2;ratioP2;P2;SDS_P1;SDS_P2;PMS_P1;PMS_P2;Temp;Humidity;BMP_temperature;BMP_pressure;BME280_temperature;BME280_humidity;BME280_pressure;Samples;Min_cycle;Max_cycle;Signal;HPM_P1;HPM_P2
2023/08/26 00:00:38;;;;;;;4.10;1.63;;;20.10;97.80;;;;;;4993151;28;20030;-71
2023/08/26 00:03:05;;;;;;;6.68;1.48;;;20.00;97.80;;;;;;4994445;28;20019;-71
2023/08/26 00:05:31;;;;;;;4.65;1.80;;;20.00;97.80;;;;;;4994291;28;20024;-71
2023/08/26 00:07:56;;;;;;;4.70;1.38;;;20.00;97.90;;;;;;4993844;28;20156;-72
2023/08/26 00:10:22;;;;;;;5.65;1.40;;;19.90;97.80;;;;;;4993644;28;20385;-71
2023/08/26 00:12:48;;;;;;;3.80;1.20;;;20.00;97.90;;;;;;4992810;28;20444;-71
2023/08/26 00:15:14;;;;;;;6.47;1.33;;;19.90;98.00;;;;;;4992172;28;20077;-71
2023/08/26 00:17:39;;;;;;;3.58;1.30;;;19.80;98.00;;;;;;4993660;28;20042;-72
2023/08/26 00:20:08;;;;;;;3.95;1.40;;;19.80;98.00;;;;;;4994040;28;20077;-71
2023/08/26 00:22:34;;;;;;;6.93;1.58;;;19.80;97.90;;;;;;4993104;28;20102;-72
2023/08/26 00:24:59;;;;;;;3.65;1.20;;;19.80;98.10;;;;;;4992953;28;20145;-71
2023/08/26 00:27:25;;;;;;;3.38;1.45;;;19.80;98.00;;;;;;4993865;28;20122;-71
2023/08/26 00:29:50;;;;;;;4.32;1.40;;;19.80;97.90;;;;;;4993980;28;20011;-72
2023/08/26 00:32:16;;;;;;;5.80;1.52;;;19.70;97.90;;;;;;4992740;28;20030;-71
2023/08/26 00:34:43;;;;;;;5.88;1.50;;;19.70;97.90;;;;;;4991834;28;20030;-71
2023/08/26 00:37:09;;;;;;;6.50;1.52;;;19.70;97.80;;;;;;4992763;28;20029;-72
2023/08/26 00:39:35;;;;;;;6.95;1.42;;;19.60;97.90;;;;;;4993746;28;20121;-73
2023/08/26 00:42:00;;;;;;;4.40;1.30;;;19.60;98.00;;;;;;4992564;28;20053;-71
2023/08/26 00:44:26;;;;;;;4.13;1.25;;;19.60;97.90;;;;;;4992619;28;20077;-71
2023/08/26 00:46:52;;;;;;;3.63;1.45;;;19.50;97.90;;;;;;4993626;28;20042;-71
2023/08/26 00:49:18;;;;;;;3.70;1.10;;;19.50;98.00;;;;;;4993461;28;20023;-72
2023/08/26 00:51:44;;;;;;;5.20;1.20;;;19.40;98.00;;;;;;4992694;28;20031;-72
2023/08/26 00:54:11;;;;;;;3.38;0.93;;;19.40;98.10;;;;;;4993036;28;20022;-72
2023/08/26 00:56:36;;;;;;;5.45;1.10;;;19.40;98.00;;;;;;4993504;28;20030;-73
2023/08/26 00:59:02;;;;;;;6.68;1.33;;;19.40;98.00;;;;;;4993187;28;20100;-71
2023/08/26 01:01:31;;;;;;;9.68;2.20;;;19.30;98.20;;;;;;4992509;28;20050;-72
2023/08/26 01:03:57;;;;;;;5.53;1.65;;;19.30;98.10;;;;;;4992548;28;20129;-73
2023/08/26 01:06:22;;;;;;;5.30;1.25;;;19.40;98.10;;;;;;4992364;28;20113;-72
2023/08/26 01:08:48;;;;;;;4.25;1.33;;;19.30;98.20;;;;;;4992468;28;20030;-71
2023/08/26 01:11:27;;;;;;;4.53;1.15;;;19.20;98.20;;;;;;4992994;28;20423;-72
2023/08/26 01:13:55;;;;;;;6.15;1.40;;;19.20;98.20;;;;;;4993542;28;20049;-72
2023/08/26 01:16:23;;;;;;;5.35;1.17;;;19.30;98.50;;;;;;4993511;28;20101;-72
2023/08/26 01:18:50;;;;;;;3.63;1.10;;;19.20;98.20;;;;;;4975200;28;20082;-73
2023/08/26 01:21:19;;;;;;;3.17;1.10;;;19.20;98.20;;;;;;4974098;28;20058;-72
2023/08/26 01:23:46;;;;;;;7.68;1.40;;;19.20;98.20;;;;;;4973311;28;20034;-72
2023/08/26 01:26:11;;;;;;;4.95;1.23;;;19.20;98.30;;;;;;4973795;28;20061;-71
2023/08/26 01:28:37;;;;;;;2.95;1.23;;;19.20;98.30;;;;;;4971966;28;20379;-71
2023/08/26 01:31:09;;;;;;;5.05;1.33;;;19.20;98.30;;;;;;4973337;28;20030;-71
2023/08/26 01:34:02;;;;;;;5.50;1.10;;;19.10;98.30;;;;;;4955012;28;20027;-71
2023/08/26 01:36:31;;;;;;;4.82;1.30;;;19.10;98.40;;;;;;4974141;28;20030;-71
2023/08/26 01:38:57;;;;;;;5.70;1.45;;;19.10;98.40;;;;;;4955680;28;20587;-72
2023/08/26 01:41:25;;;;;;;6.15;1.52;;;19.00;98.30;;;;;;4973967;28;20090;-71
2023/08/26 01:43:53;;;;;;;5.30;1.25;;;19.00;98.50;;;;;;4972028;28;20572;-71
2023/08/26 01:46:18;;;;;;;4.75;1.27;;;19.00;98.50;;;;;;4973507;28;20030;-71
2023/08/26 01:48:44;;;;;;;5.45;1.30;;;19.00;98.50;;;;;;4975108;28;20034;-71
2023/08/26 01:51:11;;;;;;;3.45;1.20;;;18.90;98.60;;;;;;4977332;28;20058;-72
2023/08/26 01:53:37;;;;;;;5.40;1.15;;;18.90;98.60;;;;;;4976718;28;20065;-71
2023/08/26 01:56:03;;;;;;;1.75;0.73;;;18.90;98.60;;;;;;4977001;28;20089;-71
2023/08/26 01:58:28;;;;;;;4.85;1.17;;;18.90;98.70;;;;;;4975986;28;20045;-72
2023/08/26 02:00:54;;;;;;;5.72;1.05;;;18.80;98.70;;;;;;4977344;28;20463;-72
2023/08/26 02:03:20;;;;;;;3.85;1.00;;;18.80;98.80;;;;;;4976678;28;20034;-71
2023/08/26 02:05:45;;;;;;;5.18;1.15;;;18.80;98.80;;;;;;4977150;28;20026;-72
2023/08/26 02:08:11;;;;;;;5.72;1.35;;;18.80;98.90;;;;;;4976423;28;20492;-72
2023/08/26 02:10:36;;;;;;;6.05;1.70;;;18.70;98.90;;;;;;4976594;28;20077;-71
2023/08/26 02:13:02;;;;;;;7.78;1.20;;;18.70;98.90;;;;;;4976787;28;20027;-70
2023/08/26 02:15:28;;;;;;;4.25;1.10;;;18.70;98.90;;;;;;4976525;28;20449;-73
2023/08/26 02:17:53;;;;;;;6.20;1.40;;;18.70;98.90;;;;;;4985397;28;20121;-73
2023/08/26 02:20:19;;;;;;;7.93;1.35;;;18.70;98.90;;;;;;4995569;28;20038;-71
2023/08/26 02:22:45;;;;;;;4.07;1.15;;;18.70;99.00;;;;;;4995172;28;20060;-72
2023/08/26 02:25:10;;;;;;;6.63;1.02;;;18.60;99.10;;;;;;4996156;28;20391;-73
2023/08/26 02:27:36;;;;;;;4.93;0.95;;;18.60;99.00;;;;;;4996108;28;20068;-72
2023/08/26 02:30:02;;;;;;;2.58;0.80;;;18.60;99.10;;;;;;4996015;28;20077;-71
2023/08/26 02:32:28;;;;;;;5.57;1.17;;;18.60;99.10;;;;;;4994689;28;20042;-72
2023/08/26 02:34:54;;;;;;;4.13;1.27;;;18.60;99.20;;;;;;4995940;28;20022;-72
2023/08/26 02:37:19;;;;;;;6.53;1.30;;;18.50;99.20;;;;;;4995432;28;20479;-72
2023/08/26 02:39:45;;;;;;;6.38;1.48;;;18.50;99.20;;;;;;4995914;28;20030;-72
2023/08/26 02:42:11;;;;;;;6.63;1.35;;;18.50;99.40;;;;;;4995324;28;20041;-71
2023/08/26 02:44:36;;;;;;;3.60;1.20;;;18.50;99.30;;;;;;4995635;28;20015;-72
2023/08/26 02:47:02;;;;;;;4.68;1.67;;;18.40;99.30;;;;;;4995103;28;20053;-71
2023/08/26 02:49:28;;;;;;;3.40;1.40;;;18.40;99.40;;;;;;4995475;28;20133;-71
2023/08/26 02:51:53;;;;;;;2.95;1.00;;;18.50;99.40;;;;;;4995937;28;20027;-71
2023/08/26 02:54:19;;;;;;;6.57;1.33;;;18.40;99.40;;;;;;4994586;28;20472;-70
2023/08/26 02:56:44;;;;;;;5.85;1.45;;;18.40;99.50;;;;;;4995613;28;20173;-71
2023/08/26 02:59:10;;;;;;;5.38;1.77;;;18.30;99.50;;;;;;4994711;28;20037;-72
2023/08/26 03:01:37;;;;;;;5.10;1.25;;;18.20;99.60;;;;;;4995089;28;20419;-73
2023/08/26 03:04:03;;;;;;;4.28;1.38;;;18.30;99.70;;;;;;4995180;28;20052;-72
2023/08/26 03:06:30;;;;;;;4.47;1.55;;;18.20;99.60;;;;;;4993625;28;20039;-71
2023/08/26 03:08:55;;;;;;;4.70;1.73;;;18.30;99.60;;;;;;4994936;28;20486;-72
2023/08/26 03:11:22;;;;;;;6.93;1.60;;;18.20;99.60;;;;;;4995721;28;20085;-71
2023/08/26 03:13:49;;;;;;;4.05;1.30;;;18.20;99.70;;;;;;4995371;28;20050;-73
2023/08/26 03:16:15;;;;;;;4.70;1.35;;;18.20;99.70;;;;;;4994700;28;20046;-72
2023/08/26 03:18:40;;;;;;;2.17;1.10;;;18.20;99.70;;;;;;4978699;28;20077;-71
2023/08/26 03:21:07;;;;;;;5.07;1.50;;;18.20;99.90;;;;;;4975646;28;20416;-72
2023/08/26 03:23:34;;;;;;;4.47;1.05;;;18.20;99.80;;;;;;4975601;28;20424;-73
2023/08/26 03:26:00;;;;;;;2.42;1.15;;;18.10;99.80;;;;;;4975311;28;20018;-72
2023/08/26 03:28:25;;;;;;;4.63;1.35;;;18.10;99.80;;;;;;4974190;28;20039;-72
2023/08/26 03:30:51;;;;;;;5.25;1.73;;;18.10;99.80;;;;;;4973991;28;20023;-72
2023/08/26 03:33:17;;;;;;;6.50;1.10;;;18.10;99.90;;;;;;4975021;28;20058;-72
2023/08/26 03:35:43;;;;;;;4.43;1.35;;;18.10;99.90;;;;;;4975366;28;20384;-71
2023/08/26 03:38:09;;;;;;;4.13;1.30;;;18.10;99.90;;;;;;4973530;28;20500;-72
2023/08/26 03:40:39;;;;;;;3.78;1.35;;;18.10;99.90;;;;;;4974839;28;20428;-72
2023/08/26 03:43:05;;;;;;;4.00;1.60;;;18.10;99.90;;;;;;4975146;28;20026;-71
2023/08/26 03:45:31;;;;;;;6.22;1.50;;;18.00;99.90;;;;;;4957653;28;20019;-73
2023/08/26 03:47:57;;;;;;;3.63;1.33;;;18.00;99.90;;;;;;4975455;28;20400;-71
2023/08/26 03:50:22;;;;;;;2.60;1.23;;;18.00;99.90;;;;;;4974141;28;20030;-71
2023/08/26 03:52:48;;;;;;;3.17;1.27;;;17.90;99.90;;;;;;4974360;28;20039;-72
2023/08/26 03:55:14;;;;;;;8.40;1.95;;;17.90;99.90;;;;;;4975267;28;20023;-72
2023/08/26 03:57:39;;;;;;;5.80;1.73;;;17.90;99.90;;;;;;4974711;28;20531;-72
2023/08/26 04:00:06;;;;;;;3.10;1.50;;;17.90;99.90;;;;;;4974983;28;20045;-72
2023/08/26 04:02:31;;;;;;;4.95;1.73;;;17.90;99.90;;;;;;4973830;28;20033;-72
2023/08/26 04:04:57;;;;;;;4.00;1.60;;;17.90;99.90;;;;;;4976633;28;20366;-73
2023/08/26 04:07:22;;;;;;;3.15;1.52;;;17.80;99.90;;;;;;4972612;28;20046;-71
2023/08/26 04:09:48;;;;;;;3.90;1.60;;;17.80;99.90;;;;;;4956871;28;20031;-72
2023/08/26 04:12:14;;;;;;;4.95;1.77;;;17.80;99.90;;;;;;4974033;28;20022;-72
2023/08/26 04:14:39;;;;;;;3.25;1.60;;;17.80;99.90;;;;;;4972526;28;20058;-72
2023/08/26 04:17:05;;;;;;;5.40;1.88;;;17.80;99.90;;;;;;4973282;28;20491;-72
2023/08/26 04:19:32;;;;;;;8.63;2.10;;;17.80;99.90;;;;;;4994247;28;20472;-71
2023/08/26 04:21:59;;;;;;;4.43;1.83;;;17.80;99.90;;;;;;4993914;28;20022;-72
2023/08/26 04:24:25;;;;;;;6.18;1.85;;;17.70;99.90;;;;;;4991237;28;20033;-70
2023/08/26 04:26:50;;;;;;;6.43;2.00;;;17.70;99.90;;;;;;4997863;28;20042;-71
2023/08/26 04:29:16;;;;;;;5.90;1.88;;;17.70;99.90;;;;;;5011762;28;20022;-70
2023/08/26 04:31:41;;;;;;;7.57;1.90;;;17.70;99.90;;;;;;5003426;28;20034;-71
2023/08/26 04:34:07;;;;;;;5.22;1.90;;;17.70;99.90;;;;;;5001664;28;20364;-72
2023/08/26 04:36:33;;;;;;;8.63;2.10;;;17.70;99.90;;;;;;5012185;28;20030;-71
2023/08/26 04:38:58;;;;;;;4.57;1.75;;;17.60;99.90;;;;;;5000281;28;20511;-72
2023/08/26 04:41:24;;;;;;;4.97;2.13;;;17.60;99.90;;;;;;5006188;28;20054;-71
2023/08/26 04:43:52;;;;;;;3.70;1.80;;;17.60;99.90;;;;;;4996388;28;20014;-73
2023/08/26 04:46:19;;;;;;;5.30;2.28;;;17.60;99.90;;;;;;4991423;28;20042;-72
2023/08/26 04:48:44;;;;;;;3.47;1.90;;;17.60;99.90;;;;;;4993092;28;20049;-72
2023/08/26 04:51:10;;;;;;;5.35;2.10;;;17.50;99.90;;;;;;4992719;28;20030;-72
2023/08/26 04:53:36;;;;;;;4.97;2.20;;;17.50;99.90;;;;;;4992860;28;20023;-71
2023/08/26 04:56:02;;;;;;;8.98;2.45;;;17.60;99.90;;;;;;4990923;28;20033;-71
2023/08/26 04:58:29;;;;;;;3.20;2.05;;;17.50;99.90;;;;;;4973600;28;20101;-71
2023/08/26 05:00:54;;;;;;;7.43;2.33;;;17.50;99.90;;;;;;4993943;28;20435;-72
2023/08/26 05:03:20;;;;;;;3.95;2.05;;;17.50;99.90;;;;;;5003522;28;20519;-71
2023/08/26 05:05:45;;;;;;;5.30;1.80;;;17.50;99.90;;;;;;5000779;28;20052;-71
2023/08/26 05:08:11;;;;;;;3.92;2.25;;;17.60;99.90;;;;;;5009548;28;20132;-71
2023/08/26 05:10:37;;;;;;;4.63;2.17;;;17.50;99.90;;;;;;4995969;28;20026;-70
2023/08/26 05:13:03;;;;;;;4.32;2.08;;;17.50;99.90;;;;;;4996621;28;20172;-71
2023/08/26 05:15:29;;;;;;;7.07;1.90;;;17.50;99.90;;;;;;4989693;28;20027;-70
2023/08/26 05:17:55;;;;;;;4.22;2.10;;;17.60;99.90;;;;;;4991283;28;20033;-71
2023/08/26 05:20:21;;;;;;;7.72;2.35;;;17.60;99.90;;;;;;4993476;28;20062;-71
2023/08/26 05:22:46;;;;;;;3.10;1.80;;;17.60;99.90;;;;;;4994265;28;20019;-73
2023/08/26 05:25:12;;;;;;;8.20;2.20;;;17.70;99.90;;;;;;4995137;28;20030;-73
2023/08/26 05:27:37;;;;;;;5.93;2.00;;;17.60;99.90;;;;;;4996534;28;20045;-72
2023/08/26 05:30:04;;;;;;;3.78;2.10;;;17.60;99.90;;;;;;5006573;28;20478;-72
2023/08/26 05:32:30;;;;;;;5.20;2.50;;;17.60;99.90;;;;;;4994680;28;20403;-70
2023/08/26 05:34:55;;;;;;;4.55;1.77;;;17.60;99.90;;;;;;4989978;28;20041;-72
2023/08/26 05:37:21;;;;;;;3.88;1.88;;;17.60;99.90;;;;;;4995489;28;20030;-71
2023/08/26 05:39:47;;;;;;;11.73;2.10;;;17.90;99.90;;;;;;4996856;28;20045;-73
2023/08/26 05:42:12;;;;;;;4.75;1.95;;;18.00;99.90;;;;;;4996738;28;20030;-73
2023/08/26 05:44:38;;;;;;;6.47;1.63;;;17.90;99.90;;;;;;4996812;28;20069;-73
2023/08/26 05:47:04;;;;;;;5.45;1.40;;;18.00;99.90;;;;;;4996777;28;20034;-74
2023/08/26 05:49:30;;;;;;;2.80;0.88;;;18.20;99.90;;;;;;4996383;28;20390;-74
2023/08/26 05:51:56;;;;;;;5.53;1.55;;;18.30;99.90;;;;;;4996929;28;20030;-72
2023/08/26 05:54:22;;;;;;;5.03;1.63;;;18.20;99.90;;;;;;4996249;28;20041;-76
2023/08/26 05:56:47;;;;;;;5.50;1.10;;;18.10;99.90;;;;;;4994829;28;20439;-74
2023/08/26 05:59:13;;;;;;;5.25;1.50;;;18.10;99.90;;;;;;4995437;28;20101;-74
2023/08/26 06:01:38;;;;;;;6.93;1.50;;;18.00;99.90;;;;;;4996226;28;20480;-73
2023/08/26 06:04:04;;;;;;;4.32;1.63;;;18.10;99.90;;;;;;4996474;28;20031;-71
2023/08/26 06:06:30;;;;;;;4.28;1.40;;;18.10;99.90;;;;;;4996547;28;20029;-74
2023/08/26 06:08:56;;;;;;;4.88;1.58;;;18.00;99.90;;;;;;4996123;28;20502;-73
2023/08/26 06:11:22;;;;;;;3.85;1.90;;;18.00;99.90;;;;;;4996517;28;20026;-74
2023/08/26 06:13:48;;;;;;;6.50;1.50;;;18.00;99.90;;;;;;4996122;28;20033;-71
2023/08/26 06:16:19;;;;;;;2.97;1.38;;;18.00;99.90;;;;;;4996192;28;20030;-73
2023/08/26 06:18:47;;;;;;;5.95;1.33;;;18.00;99.90;;;;;;4980355;28;20035;-73
2023/08/26 06:21:13;;;;;;;4.60;1.40;;;18.00;99.90;;;;;;4976853;28;20049;-71
2023/08/26 06:23:38;;;;;;;3.50;1.60;;;18.00;99.90;;;;;;4976386;28;20472;-71
2023/08/26 06:26:04;;;;;;;4.50;1.35;;;18.10;99.90;;;;;;4976302;28;20051;-74
2023/08/26 06:28:30;;;;;;;6.25;1.25;;;18.00;99.90;;;;;;4976776;28;20384;-73
2023/08/26 06:31:00;;;;;;;5.57;1.23;;;18.00;99.90;;;;;;4976192;28;20030;-74
2023/08/26 06:33:26;;;;;;;4.93;1.60;;;18.10;99.90;;;;;;4976572;28;20523;-74
2023/08/26 06:35:52;;;;;;;4.20;1.33;;;18.10;99.90;;;;;;4976531;28;20054;-74
2023/08/26 06:38:18;;;;;;;4.75;1.70;;;18.10;99.90;;;;;;4976081;28;20027;-72
2023/08/26 06:40:55;;;;;;;4.78;1.50;;;18.10;99.90;;;;;;4976421;28;20026;-74
2023/08/26 06:43:21;;;;;;;5.78;1.20;;;18.20;99.90;;;;;;4976402;28;20085;-71
2023/08/26 06:45:47;;;;;;;4.57;1.50;;;18.20;99.90;;;;;;4975993;28;20106;-72
2023/08/26 06:48:13;;;;;;;2.67;1.17;;;18.20;99.90;;;;;;4976276;28;20508;-73
2023/08/26 06:50:40;;;;;;;2.72;1.30;;;18.20;99.90;;;;;;4976356;28;20565;-73
2023/08/26 06:53:06;;;;;;;5.63;1.20;;;18.30;99.90;;;;;;4976106;28;20049;-73
2023/08/26 06:55:31;;;;;;;4.88;1.27;;;18.40;99.90;;;;;;4976205;28;20380;-73
2023/08/26 06:57:57;;;;;;;4.20;1.52;;;18.40;99.90;;;;;;4976274;28;20030;-71
2023/08/26 07:00:23;;;;;;;3.58;0.93;;;18.50;99.90;;;;;;4976129;28;20392;-74
2023/08/26 07:02:49;;;;;;;3.25;1.02;;;18.40;99.90;;;;;;4976041;28;20065;-71
2023/08/26 07:05:15;;;;;;;4.53;1.10;;;18.60;99.90;;;;;;4975844;28;20023;-74
2023/08/26 07:07:40;;;;;;;2.28;0.85;;;18.50;99.90;;;;;;4958260;28;20118;-75
2023/08/26 07:10:06;;;;;;;3.45;1.10;;;18.60;99.90;;;;;;4975964;28;20031;-73
2023/08/26 07:12:32;;;;;;;3.13;1.40;;;18.60;99.90;;;;;;4958772;28;20031;-73
2023/08/26 07:14:58;;;;;;;5.05;1.40;;;18.70;99.90;;;;;;4975849;28;20077;-74
2023/08/26 07:17:23;;;;;;;2.95;1.20;;;18.70;99.90;;;;;;4975620;28;20093;-74
2023/08/26 07:19:50;;;;;;;3.53;1.08;;;18.70;99.90;;;;;;4975858;28;20037;-71
2023/08/26 07:22:15;;;;;;;4.25;1.10;;;18.80;99.90;;;;;;4975299;28;20075;-71
2023/08/26 07:24:41;;;;;;;6.55;0.98;;;18.80;99.90;;;;;;4975789;28;20050;-74
2023/08/26 07:27:06;;;;;;;3.10;0.85;;;18.90;99.90;;;;;;4958100;28;20150;-73
2023/08/26 07:29:33;;;;;;;3.40;1.10;;;18.90;99.90;;;;;;4975610;28;20019;-73
2023/08/26 07:31:59;;;;;;;5.35;1.65;;;18.90;99.90;;;;;;4975572;28;20023;-74
2023/08/26 07:34:25;;;;;;;2.90;0.88;;;19.00;99.90;;;;;;4975534;28;20030;-73
2023/08/26 07:36:51;;;;;;;3.67;0.93;;;19.10;99.90;;;;;;4975169;28;20019;-74
2023/08/26 07:39:18;;;;;;;4.88;0.98;;;19.10;99.90;;;;;;4975412;28;20030;-73
2023/08/26 07:41:44;;;;;;;5.20;0.88;;;19.20;99.90;;;;;;4975465;28;20556;-74
2023/08/26 07:44:09;;;;;;;4.63;0.93;;;19.20;99.90;;;;;;4975130;28;20440;-72
2023/08/26 07:46:35;;;;;;;6.68;1.20;;;19.20;99.90;;;;;;4974532;28;20043;-71
2023/08/26 07:49:00;;;;;;;4.25;0.90;;;19.30;99.90;;;;;;4975340;28;20078;-74
2023/08/26 07:51:26;;;;;;;3.60;0.82;;;19.30;99.90;;;;;;4963813;28;20033;-74
2023/08/26 07:53:52;;;;;;;3.92;0.50;;;19.40;99.90;;;;;;4969423;28;20022;-71
2023/08/26 07:56:18;;;;;;;5.55;0.93;;;19.40;99.90;;;;;;4967621;28;20045;-74
2023/08/26 07:58:44;;;;;;;4.40;0.80;;;19.50;99.90;;;;;;4971661;28;20085;-74
2023/08/26 08:01:09;;;;;;;5.40;0.80;;;19.50;99.90;;;;;;4971571;28;20042;-74
2023/08/26 08:03:36;;;;;;;2.40;0.50;;;19.60;99.90;;;;;;4971890;28;20051;-72
2023/08/26 08:06:02;;;;;;;2.83;0.90;;;19.60;99.90;;;;;;4968504;28;20035;-73
2023/08/26 08:08:27;;;;;;;5.95;0.80;;;19.70;99.90;;;;;;4971372;28;20030;-74
2023/08/26 08:10:53;;;;;;;3.33;0.82;;;19.70;99.90;;;;;;4972795;28;20019;-74
2023/08/26 08:13:19;;;;;;;6.32;0.60;;;19.80;99.90;;;;;;4971056;28;20499;-72
2023/08/26 08:15:44;;;;;;;5.07;0.75;;;19.80;99.90;;;;;;4976206;28;20033;-72
2023/08/26 08:18:10;;;;;;;3.72;0.70;;;19.80;99.90;;;;;;4984812;28;20041;-73
2023/08/26 08:20:36;;;;;;;5.57;1.00;;;19.90;99.90;;;;;;4993483;28;20042;-73
2023/08/26 08:23:03;;;;;;;2.83;0.60;;;19.90;99.90;;;;;;4990736;28;20479;-72
2023/08/26 08:25:29;;;;;;;2.85;0.50;;;19.90;99.90;;;;;;4991811;28;20061;-71
2023/08/26 08:27:55;;;;;;;3.03;0.90;;;19.90;99.90;;;;;;4986403;28;20231;-73
2023/08/26 08:30:20;;;;;;;2.60;0.60;;;20.00;99.90;;;;;;4991198;28;20558;-71
2023/08/26 08:32:46;;;;;;;3.75;0.70;;;20.00;99.90;;;;;;4986229;28;20076;-72
2023/08/26 08:35:12;;;;;;;1.70;0.60;;;20.00;99.90;;;;;;4989615;28;20026;-72
2023/08/26 08:37:37;;;;;;;4.50;0.80;;;20.00;99.90;;;;;;4990099;28;20470;-73
2023/08/26 08:40:05;;;;;;;5.22;0.70;;;20.10;99.90;;;;;;4994315;28;20045;-72
2023/08/26 08:42:34;;;;;;;2.33;0.60;;;20.10;99.90;;;;;;4988748;28;20023;-73
2023/08/26 08:45:03;;;;;;;4.20;0.98;;;20.20;99.90;;;;;;4991741;28;20061;-72
2023/08/26 08:47:29;;;;;;;3.60;0.65;;;20.20;99.90;;;;;;4985495;28;20042;-71
2023/08/26 08:49:57;;;;;;;2.83;0.88;;;20.20;99.90;;;;;;4991915;28;20022;-70
2023/08/26 08:52:23;;;;;;;4.93;0.68;;;20.20;99.90;;;;;;4991140;28;20463;-70
2023/08/26 08:54:49;;;;;;;6.97;0.85;;;20.30;99.90;;;;;;4992568;28;20081;-71
2023/08/26 08:57:18;;;;;;;4.32;0.90;;;20.30;99.90;;;;;;4990918;28;20443;-71
2023/08/26 08:59:44;;;;;;;6.05;0.90;;;20.40;99.90;;;;;;4993369;28;20037;-70
2023/08/26 09:02:12;;;;;;;5.15;1.05;;;20.50;99.90;;;;;;4991771;28;20546;-70
2023/08/26 09:04:38;;;;;;;5.50;0.95;;;20.50;99.90;;;;;;4995051;28;20054;-72
2023/08/26 09:07:06;;;;;;;5.80;0.90;;;20.50;99.90;;;;;;4992178;28;20035;-71
2023/08/26 09:09:31;;;;;;;2.97;0.50;;;20.60;99.90;;;;;;4993431;28;20053;-72
2023/08/26 09:12:00;;;;;;;2.88;0.60;;;20.60;99.90;;;;;;4993122;28;20494;-73
2023/08/26 09:14:26;;;;;;;5.82;0.77;;;20.60;99.90;;;;;;4995859;28;20034;-75
2023/08/26 09:16:54;;;;;;;4.88;1.00;;;20.60;99.90;;;;;;4996422;28;20023;-71
2023/08/26 09:19:19;;;;;;;7.25;1.00;;;20.60;99.90;;;;;;4978864;28;20082;-72
2023/08/26 09:21:46;;;;;;;5.47;1.60;;;20.60;99.90;;;;;;4984035;28;20026;-71
2023/08/26 09:24:16;;;;;;;5.40;0.73;;;20.70;99.90;;;;;;4978845;28;20514;-71
2023/08/26 09:26:58;;;;;;;5.82;0.98;;;20.70;99.90;;;;;;4975156;28;20035;-73
2023/08/26 09:29:25;;;;;;;4.03;0.70;;;20.70;99.90;;;;;;4981498;28;20372;-73
2023/08/26 09:31:52;;;;;;;8.90;1.17;;;20.70;99.90;;;;;;4978670;28;20461;-71
2023/08/26 09:34:32;;;;;;;3.85;0.90;;;20.80;99.90;;;;;;4977073;28;20045;-72
2023/08/26 09:37:01;;;;;;;4.18;0.90;;;20.80;99.90;;;;;;4971622;28;20035;-72
2023/08/26 09:39:28;;;;;;;7.28;0.70;;;20.90;99.90;;;;;;4978039;28;20146;-73
2023/08/26 09:41:58;;;;;;;6.75;1.02;;;20.90;99.90;;;;;;4959751;28;20045;-73
2023/08/26 09:44:24;;;;;;;3.28;1.02;;;20.90;99.90;;;;;;4976198;28;20023;-73
2023/08/26 09:46:50;;;;;;;2.78;0.60;;;20.90;99.90;;;;;;4962200;28;20387;-73
2023/08/26 09:49:17;;;;;;;2.72;0.70;;;20.90;99.80;;;;;;4976696;28;20440;-71
2023/08/26 09:51:48;;;;;;;6.38;0.90;;;21.00;99.80;;;;;;4981912;28;20069;-75
2023/08/26 09:54:16;;;;;;;5.88;0.95;;;20.90;99.80;;;;;;4981938;28;20093;-73
2023/08/26 09:56:42;;;;;;;6.45;0.80;;;21.00;99.60;;;;;;4974516;28;20023;-73
2023/08/26 09:59:08;;;;;;;6.28;0.80;;;21.00;99.60;;;;;;4958740;28;20042;-74
2023/08/26 10:01:36;;;;;;;2.13;0.40;;;21.00;99.60;;;;;;4978427;28;20137;-72
2023/08/26 10:04:08;;;;;;;6.00;0.90;;;21.00;99.70;;;;;;4970568;28;20062;-72
2023/08/26 10:06:47;;;;;;;4.68;1.20;;;21.10;99.90;;;;;;4977568;28;20034;-72
2023/08/26 10:09:18;;;;;;;7.25;1.92;;;21.10;99.90;;;;;;4971146;28;20019;-72
2023/08/26 10:11:48;;;;;;;6.25;1.20;;;21.20;99.90;;;;;;4974937;28;20061;-73
2023/08/26 10:14:16;;;;;;;10.18;1.65;;;21.20;99.90;;;;;;4973453;28;20023;-74
2023/08/26 10:16:44;;;;;;;4.43;1.00;;;21.20;99.90;;;;;;4978217;28;20023;-73
2023/08/26 10:19:10;;;;;;;7.55;1.50;;;21.20;99.90;;;;;;4992856;28;20060;-72
2023/08/26 10:21:37;;;;;;;1.73;0.77;;;21.30;99.90;;;;;;4993831;28;20022;-74
2023/08/26 10:24:04;;;;;;;4.22;0.82;;;21.30;99.90;;;;;;4995198;28;20076;-73
2023/08/26 10:26:30;;;;;;;6.18;0.85;;;21.30;99.90;;;;;;4990957;28;20030;-74
2023/08/26 10:28:56;;;;;;;8.38;1.00;;;21.30;99.90;;;;;;5000706;28;20072;-73
2023/08/26 10:31:35;;;;;;;5.47;1.08;;;21.30;99.90;;;;;;5003728;28;20026;-73
2023/08/26 10:34:07;;;;;;;3.00;1.05;;;21.30;99.90;;;;;;4998029;28;20491;-72
2023/08/26 10:36:34;;;;;;;9.35;1.10;;;21.30;99.90;;;;;;4995438;28;20527;-72
2023/08/26 10:39:00;;;;;;;2.70;0.52;;;21.40;99.90;;;;;;4995443;28;20023;-73
2023/08/26 10:41:26;;;;;;;3.00;0.90;;;21.40;99.80;;;;;;5010343;28;20073;-73
2023/08/26 10:43:55;;;;;;;4.10;0.90;;;21.40;99.40;;;;;;5010119;28;20483;-72
2023/08/26 10:46:34;;;;;;;3.63;0.77;;;21.40;99.40;;;;;;4994172;28;20034;-71
2023/08/26 10:49:02;;;;;;;3.42;0.75;;;21.40;99.40;;;;;;4992253;28;20053;-71
2023/08/26 10:51:28;;;;;;;3.63;0.60;;;21.40;99.30;;;;;;5000258;28;20026;-71
2023/08/26 10:54:01;;;;;;;2.35;0.75;;;21.40;99.10;;;;;;4992896;28;20023;-71
2023/08/26 10:56:28;;;;;;;2.70;0.68;;;21.40;99.10;;;;;;4995284;28;20414;-73
2023/08/26 10:59:03;;;;;;;3.35;0.68;;;21.50;99.20;;;;;;4993871;28;20033;-73
2023/08/26 11:01:33;;;;;;;3.10;0.70;;;21.50;99.00;;;;;;4991369;28;20018;-74
2023/08/26 11:03:59;;;;;;;4.03;0.90;;;21.50;98.60;;;;;;4994862;28;20023;-72
2023/08/26 11:06:25;;;;;;;1.10;0.30;;;21.60;98.60;;;;;;5005561;28;20116;-73
2023/08/26 11:08:56;;;;;;;4.57;0.90;;;21.60;98.60;;;;;;4994444;28;20042;-75
2023/08/26 11:11:22;;;;;;;3.60;1.05;;;21.60;98.50;;;;;;5002690;28;20022;-74
2023/08/26 11:13:48;;;;;;;2.40;1.08;;;21.60;98.30;;;;;;4991437;28;20041;-74
2023/08/26 11:16:15;;;;;;;4.07;1.15;;;21.60;98.40;;;;;;4994454;28;20019;-72
2023/08/26 11:18:43;;;;;;;4.28;1.00;;;21.60;98.40;;;;;;4993375;28;20045;-71
2023/08/26 11:21:09;;;;;;;4.80;1.10;;;21.60;98.40;;;;;;4993096;28;20041;-72
2023/08/26 11:23:35;;;;;;;4.65;0.82;;;21.70;98.20;;;;;;4993825;28;20034;-73
2023/08/26 11:26:01;;;;;;;2.22;0.80;;;21.70;98.20;;;;;;4992818;28;20030;-73
2023/08/26 11:28:27;;;;;;;4.10;0.80;;;21.70;98.10;;;;;;4992673;28;20038;-70
2023/08/26 11:30:54;;;;;;;3.67;0.60;;;21.70;97.70;;;;;;4993407;28;20026;-72
2023/08/26 11:33:22;;;;;;;8.32;0.93;;;21.70;97.60;;;;;;4993374;28;20030;-72
2023/08/26 11:35:49;;;;;;;3.65;1.02;;;21.80;97.70;;;;;;4993767;28;20081;-72
2023/08/26 11:38:16;;;;;;;5.38;0.80;;;21.80;97.70;;;;;;4994524;28;20026;-73
2023/08/26 11:40:41;;;;;;;2.97;0.63;;;21.80;97.50;;;;;;4994102;28;20034;-74
2023/08/26 11:43:08;;;;;;;6.45;0.80;;;21.80;97.40;;;;;;4992991;28;20020;-72
2023/08/26 11:45:35;;;;;;;4.18;1.13;;;21.90;97.30;;;;;;4993441;28;20065;-71
2023/08/26 11:48:01;;;;;;;6.07;1.20;;;21.90;97.10;;;;;;4994111;28;20041;-73
2023/08/26 11:50:27;;;;;;;6.25;0.60;;;21.90;97.10;;;;;;4990488;28;20042;-73
2023/08/26 11:53:22;;;;;;;2.30;0.60;;;22.00;97.00;;;;;;4992351;28;20056;-72
2023/08/26 11:56:07;;;;;;;4.82;0.80;;;21.90;96.70;;;;;;4993923;28;20030;-72
2023/08/26 11:58:38;;;;;;;2.17;0.75;;;21.90;96.70;;;;;;4987146;28;20103;-71
2023/08/26 12:01:07;;;;;;;5.68;0.93;;;21.90;96.80;;;;;;4992288;28;20379;-72
2023/08/26 12:03:40;;;;;;;4.00;0.57;;;22.00;96.80;;;;;;4989550;28;20057;-73
2023/08/26 12:06:07;;;;;;;1.90;0.43;;;22.00;96.60;;;;;;4990569;28;20030;-71
2023/08/26 12:08:33;;;;;;;3.47;0.60;;;22.00;96.60;;;;;;4987773;28;20502;-72
2023/08/26 12:10:59;;;;;;;2.42;0.50;;;22.10;96.50;;;;;;4995370;28;20097;-71
2023/08/26 12:13:38;;;;;;;1.30;0.45;;;22.10;96.40;;;;;;4992164;28;20042;-74
2023/08/26 12:16:05;;;;;;;2.97;0.40;;;22.10;96.30;;;;;;4992474;28;20110;-73
2023/08/26 12:18:31;;;;;;;3.35;0.45;;;22.10;96.20;;;;;;4991824;28;20046;-73
2023/08/26 12:20:57;;;;;;;1.70;0.40;;;22.10;96.00;;;;;;4974240;28;20027;-72
2023/08/26 12:23:22;;;;;;;1.00;0.30;;;22.10;96.10;;;;;;4989703;28;20033;-71
2023/08/26 12:25:48;;;;;;;1.85;0.60;;;22.10;95.80;;;;;;4993565;28;20109;-72
2023/08/26 12:28:24;;;;;;;1.23;0.28;;;22.10;95.80;;;;;;4993120;28;20476;-73
2023/08/26 12:30:51;;;;;;;1.95;0.30;;;22.10;95.80;;;;;;4992668;28;20034;-70
2023/08/26 12:33:17;;;;;;;1.42;0.38;;;22.20;95.80;;;;;;4991356;28;20030;-70
2023/08/26 12:35:45;;;;;;;3.65;0.60;;;22.20;96.00;;;;;;4990631;28;20507;-70
2023/08/26 12:38:11;;;;;;;4.75;0.60;;;22.20;95.70;;;;;;4991985;28;20026;-70
2023/08/26 12:40:45;;;;;;;2.83;0.50;;;22.20;95.60;;;;;;4989726;28;20034;-70
2023/08/26 12:43:11;;;;;;;2.97;0.55;;;22.20;95.60;;;;;;4992293;28;20471;-70
2023/08/26 12:45:36;;;;;;;2.40;0.60;;;22.20;95.60;;;;;;4988740;28;20085;-70